createdAt,value
2023-04-14T00:02:25.997Z,11.12
2023-04-14T00:04:54.682Z,11.14
2023-04-14T00:07:22.829Z,11.12
2023-04-14T00:09:54.061Z,11.10
2023-04-14T00:12:25.010Z,11.08
2023-04-14T00:14:53.222Z,11.10
2023-04-14T00:17:21.335Z,11.13
2023-04-14T00:19:50.090Z,11.17
2023-04-14T00:22:18.665Z,11.21
2023-04-14T00:24:47.344Z,11.24
2023-04-14T00:27:15.815Z,11.24
2023-04-14T00:29:44.209Z,11.26
2023-04-14T00:32:13.239Z,11.29
2023-04-14T00:34:41.900Z,11.30
2023-04-14T00:37:10.547Z,11.31
2023-04-14T00:39:38.811Z,11.29
2023-04-14T00:42:06.985Z,11.28
2023-04-14T00:44:36.270Z,11.27
2023-04-14T00:47:04.450Z,11.28
2023-04-14T00:49:32.955Z,11.28
2023-04-14T00:52:01.690Z,11.28
2023-04-14T00:54:31.559Z,11.28
2023-04-14T00:57:01.102Z,11.29
2023-04-14T00:59:29.950Z,11.30
2023-04-14T01:01:59.485Z,11.26
2023-04-14T01:04:40.502Z,11.22
2023-04-14T01:07:19.706Z,11.22
2023-04-14T01:09:48.099Z,11.24
2023-04-14T01:12:31.012Z,11.25
2023-04-14T01:15:16.028Z,11.25
2023-04-14T01:17:52.098Z,11.26
2023-04-14T01:20:43.523Z,11.28
2023-04-14T01:23:20.574Z,11.24
2023-04-14T01:26:07.925Z,11.25
2023-04-14T01:29:04.185Z,11.27
2023-04-14T01:31:36.185Z,11.25
2023-04-14T01:34:31.868Z,11.27
2023-04-14T01:37:32.753Z,11.24
2023-04-14T01:40:11.663Z,11.29
2023-04-14T01:42:43.392Z,11.33
2023-04-14T01:45:16.449Z,11.32
2023-04-14T01:47:45.487Z,11.29
2023-04-14T01:50:13.590Z,11.20
2023-04-14T02:06:32.311Z,11.31
2023-04-14T02:09:02.416Z,11.39
2023-04-14T02:11:31.733Z,11.38
2023-04-14T02:14:00.971Z,11.35
2023-04-14T02:16:30.882Z,11.35
2023-04-14T02:18:59.130Z,11.31
2023-04-14T02:21:28.706Z,11.27
2023-04-14T02:23:57.978Z,11.25
2023-04-14T02:26:27.964Z,11.21
2023-04-14T02:29:07.526Z,11.16
2023-04-14T02:31:36.860Z,11.11
2023-04-14T02:34:06.050Z,11.05
2023-04-14T02:36:46.436Z,11.01
2023-04-14T02:39:21.231Z,10.95
2023-04-14T02:42:06.193Z,10.93
2023-04-14T02:44:36.735Z,10.92
2023-04-14T02:47:07.854Z,10.90
2023-04-14T02:49:42.996Z,10.87
2023-04-14T02:52:12.894Z,10.83
2023-04-14T02:54:42.361Z,10.85
2023-04-14T02:57:10.981Z,10.86
2023-04-14T02:59:42.551Z,10.85
2023-04-14T03:02:13.023Z,10.80
2023-04-14T03:04:45.591Z,10.77
2023-04-14T03:07:19.790Z,10.79
2023-04-14T03:09:50.648Z,10.82
2023-04-14T03:12:20.533Z,10.82
2023-04-14T03:14:49.509Z,10.81
2023-04-14T03:17:21.249Z,10.77
2023-04-14T03:19:50.715Z,10.73
2023-04-14T03:22:20.808Z,10.73
2023-04-14T03:24:50.944Z,10.67
2023-04-14T03:27:26.356Z,10.60
2023-04-14T03:29:56.804Z,10.54
2023-04-14T03:32:36.018Z,10.52
2023-04-14T03:35:07.270Z,10.52
2023-04-14T03:37:38.182Z,10.53
2023-04-14T03:40:10.550Z,10.55
2023-04-14T03:42:39.976Z,10.57
2023-04-14T03:45:08.822Z,10.60
2023-04-14T03:47:39.000Z,10.60
2023-04-14T03:50:09.479Z,10.53
2023-04-14T03:52:38.306Z,10.48
2023-04-14T03:55:06.894Z,10.45
2023-04-14T03:57:38.646Z,10.40
2023-04-14T04:00:09.426Z,10.36
2023-04-14T04:03:06.392Z,10.38
2023-04-14T04:05:35.466Z,10.44
2023-04-14T04:08:03.894Z,10.45
2023-04-14T04:10:34.307Z,10.47
2023-04-14T04:13:03.015Z,10.49
2023-04-14T04:15:36.820Z,10.53
2023-04-14T04:18:07.335Z,10.53
2023-04-14T04:20:37.642Z,10.51
2023-04-14T04:23:07.382Z,10.54
2023-04-14T04:25:37.102Z,10.54
2023-04-14T04:28:14.305Z,10.57
2023-04-14T04:30:45.595Z,10.61
2023-04-14T04:33:15.780Z,10.62
2023-04-14T04:35:44.668Z,10.61
2023-04-14T04:38:13.508Z,10.60
2023-04-14T04:40:43.986Z,10.63
2023-04-14T04:43:23.738Z,10.63
2023-04-14T04:45:58.625Z,10.63
2023-04-14T04:48:27.397Z,10.62
2023-04-14T04:50:55.822Z,10.59
2023-04-14T04:53:23.947Z,10.56
2023-04-14T04:55:54.468Z,10.54
2023-04-14T04:58:22.990Z,10.56
2023-04-14T05:00:51.100Z,10.60
2023-04-14T05:03:20.064Z,10.61
2023-04-14T05:05:48.594Z,10.60
2023-04-14T05:08:17.035Z,10.64
2023-04-14T05:10:45.382Z,10.70
2023-04-14T05:13:14.050Z,10.75
2023-04-14T05:15:43.051Z,10.79
2023-04-14T05:18:14.561Z,10.79
2023-04-14T05:20:43.681Z,10.77
2023-04-14T05:23:13.935Z,10.77
2023-04-14T05:25:47.545Z,10.79
2023-04-14T05:28:16.528Z,10.83
2023-04-14T05:30:45.604Z,10.86
2023-04-14T05:33:16.323Z,10.90
2023-04-14T05:35:47.613Z,10.96
2023-04-14T05:38:16.481Z,11.00
2023-04-14T05:40:52.979Z,11.02
2023-04-14T05:43:23.047Z,11.02
2023-04-14T05:45:52.175Z,11.03
2023-04-14T05:48:25.158Z,11.02
2023-04-14T05:50:53.945Z,11.00
2023-04-14T05:53:22.269Z,10.97
2023-04-14T05:55:54.175Z,10.91
2023-04-14T05:58:26.851Z,10.83
2023-04-14T06:00:55.932Z,10.80
2023-04-14T06:03:32.535Z,10.79
2023-04-14T06:06:01.631Z,10.78
2023-04-14T06:08:30.627Z,10.79
2023-04-14T06:10:59.704Z,10.81
2023-04-14T06:13:32.522Z,10.81
2023-04-14T06:16:04.186Z,10.86
2023-04-14T06:18:36.019Z,10.91
2023-04-14T06:21:05.520Z,10.90
2023-04-14T06:23:34.081Z,10.87
2023-04-14T06:26:02.357Z,10.86
2023-04-14T06:28:34.067Z,10.89
2023-04-14T06:31:02.570Z,10.91
2023-04-14T06:33:31.855Z,10.91
2023-04-14T06:36:02.094Z,10.90
2023-04-14T06:38:31.818Z,10.86
2023-04-14T06:41:00.440Z,10.80
2023-04-14T06:43:29.685Z,10.74
2023-04-14T06:45:58.587Z,10.69
2023-04-14T06:48:28.268Z,10.68
2023-04-14T06:50:57.452Z,10.71
2023-04-14T06:53:26.895Z,10.76
2023-04-14T06:56:01.822Z,10.78
2023-04-14T06:58:31.417Z,10.77
2023-04-14T07:01:02.412Z,10.79
2023-04-14T07:03:31.631Z,10.79
2023-04-14T07:06:06.664Z,10.80
2023-04-14T07:08:39.412Z,10.81
2023-04-14T07:11:11.568Z,10.82
2023-04-14T07:13:41.652Z,10.78
2023-04-14T07:16:10.851Z,10.73
2023-04-14T07:18:46.785Z,10.66
2023-04-14T07:21:17.920Z,10.63
2023-04-14T07:23:50.601Z,10.65
2023-04-14T07:26:19.173Z,10.68
2023-04-14T07:28:48.192Z,10.68
2023-04-14T07:31:22.862Z,10.70
2023-04-14T07:33:53.774Z,10.71
2023-04-14T07:36:22.689Z,10.70
2023-04-14T07:38:53.990Z,10.66
2023-04-14T07:41:24.386Z,10.62
2023-04-14T07:43:56.343Z,10.61
2023-04-14T07:46:25.245Z,10.58
2023-04-14T07:48:54.016Z,10.60
2023-04-14T07:51:23.559Z,10.57
2023-04-14T07:53:53.323Z,10.53
2023-04-14T07:56:22.754Z,10.54
2023-04-14T07:58:51.681Z,10.58
2023-04-14T08:01:20.897Z,10.65
2023-04-14T08:03:51.643Z,10.71
2023-04-14T08:06:21.416Z,10.79
2023-04-14T08:08:54.406Z,10.87
2023-04-14T08:11:23.864Z,10.91
2023-04-14T08:13:53.807Z,10.90
2023-04-14T08:16:27.575Z,10.88
2023-04-14T08:18:58.106Z,10.89
2023-04-14T08:21:28.903Z,10.91
2023-04-14T08:24:01.943Z,10.93
2023-04-14T08:26:32.218Z,10.95
2023-04-14T08:29:03.850Z,10.98
2023-04-14T08:31:36.824Z,11.03
2023-04-14T08:34:07.247Z,11.12
2023-04-14T08:36:36.616Z,11.26
2023-04-14T08:39:05.283Z,11.37
2023-04-14T08:41:36.238Z,11.42
2023-04-14T08:44:05.179Z,11.47
2023-04-14T08:46:36.329Z,11.48
2023-04-14T08:49:06.552Z,11.48
2023-04-14T08:51:35.640Z,11.49
2023-04-14T08:54:12.150Z,11.43
2023-04-14T08:56:41.513Z,11.36
2023-04-14T08:59:10.787Z,11.31
2023-04-14T09:01:41.979Z,11.28
2023-04-14T09:04:15.673Z,11.27
2023-04-14T09:06:45.030Z,11.32
2023-04-14T09:09:14.594Z,11.33
2023-04-14T09:11:42.900Z,11.32
2023-04-14T09:14:11.779Z,11.31
2023-04-14T09:16:45.017Z,11.31
2023-04-14T09:19:23.119Z,11.36
2023-04-14T09:21:55.425Z,11.41
2023-04-14T09:24:32.444Z,11.52
2023-04-14T09:27:05.719Z,11.67
2023-04-14T09:29:34.576Z,11.78
2023-04-14T09:32:12.787Z,11.86
2023-04-14T09:34:56.484Z,11.88
2023-04-14T09:40:09.878Z,11.75
2023-04-14T09:42:42.869Z,11.74
2023-04-14T09:45:13.429Z,11.76
2023-04-14T09:47:59.466Z,11.79
2023-04-14T09:51:19.475Z,11.83
2023-04-14T09:53:48.673Z,11.92
2023-04-14T09:56:18.968Z,12.00
2023-04-14T09:59:02.823Z,12.10
2023-04-14T10:01:34.570Z,12.17
2023-04-14T10:04:06.217Z,12.21
2023-04-14T10:06:38.102Z,12.18
2023-04-14T10:09:06.994Z,12.15
2023-04-14T10:11:37.082Z,12.12
2023-04-14T10:14:07.022Z,12.08
2023-04-14T10:16:36.496Z,12.07
2023-04-14T10:19:05.525Z,12.03
2023-04-14T10:21:37.946Z,12.00
2023-04-14T10:24:06.431Z,12.00
2023-04-14T10:26:36.561Z,12.03
2023-04-14T10:29:07.038Z,12.07
2023-04-14T10:31:39.974Z,12.10
2023-04-14T10:34:12.180Z,12.11
2023-04-14T10:36:41.693Z,12.12
2023-04-14T10:39:11.555Z,12.11
2023-04-14T10:41:50.806Z,12.13
2023-04-14T10:44:29.531Z,12.16
2023-04-14T10:47:02.684Z,12.18
2023-04-14T10:49:33.888Z,12.16
2023-04-14T10:52:06.791Z,12.14
2023-04-14T10:55:01.246Z,12.10
2023-04-14T10:57:30.376Z,12.07
2023-04-14T11:00:04.079Z,12.00
2023-04-14T11:02:34.839Z,11.95
2023-04-14T11:05:14.375Z,11.92
2023-04-14T11:07:48.515Z,11.87
2023-04-14T11:10:18.047Z,11.82
2023-04-14T11:12:48.060Z,11.81
2023-04-14T11:15:17.705Z,11.86
2023-04-14T11:17:46.132Z,11.95
2023-04-14T11:20:21.748Z,12.03
2023-04-14T11:22:54.330Z,12.10
2023-04-14T11:25:24.814Z,12.06
2023-04-14T11:27:53.918Z,11.98
2023-04-14T11:30:23.415Z,11.87
2023-04-14T11:32:54.053Z,11.74
2023-04-14T11:35:24.617Z,11.63
2023-04-14T11:37:56.735Z,11.51
2023-04-14T11:40:26.930Z,11.43
2023-04-14T11:42:57.218Z,11.39
2023-04-14T11:45:30.059Z,11.42
2023-04-14T11:48:02.070Z,11.47
2023-04-14T11:50:32.974Z,11.55
2023-04-14T11:53:02.967Z,11.63
2023-04-14T11:55:32.299Z,11.67
2023-04-14T11:58:00.608Z,11.68
2023-04-14T12:00:29.037Z,11.65
2023-04-14T12:02:58.884Z,11.59
2023-04-14T12:05:31.785Z,11.57
2023-04-14T12:08:09.043Z,11.57
2023-04-14T12:10:43.646Z,11.62
2023-04-14T12:13:12.998Z,11.67
2023-04-14T12:15:41.873Z,11.68
2023-04-14T12:18:15.388Z,11.67
2023-04-14T12:20:53.785Z,11.64
2023-04-14T12:23:22.179Z,11.60
2023-04-14T12:25:54.903Z,11.59
2023-04-14T12:28:28.177Z,11.59
2023-04-14T12:30:59.805Z,11.56
2023-04-14T12:33:28.891Z,11.49
2023-04-14T12:36:05.029Z,11.35
2023-04-14T12:38:34.443Z,11.25
2023-04-14T12:52:51.465Z,10.82
2023-04-14T12:55:25.892Z,10.77
2023-04-14T12:57:55.851Z,10.72
2023-04-14T13:00:29.047Z,10.69
2023-04-14T13:02:59.172Z,10.64
2023-04-14T13:05:31.455Z,10.59
2023-04-14T13:08:00.063Z,10.57
2023-04-14T13:10:28.626Z,10.57
2023-04-14T13:12:56.992Z,10.56
2023-04-14T13:16:13.138Z,10.61
2023-04-14T13:18:17.625Z,10.67
2023-04-14T13:20:54.679Z,10.69
2023-04-14T13:23:24.276Z,10.65
2023-04-14T13:25:52.485Z,10.67
2023-04-14T13:28:21.011Z,10.71
2023-04-14T13:30:54.744Z,10.74
2023-04-14T13:33:29.925Z,10.78
2023-04-14T13:36:04.208Z,10.82
2023-04-14T13:38:33.593Z,10.84
2023-04-14T13:41:02.015Z,10.87
2023-04-14T13:43:44.029Z,10.85
2023-04-14T13:46:13.019Z,10.85
2023-04-14T13:48:44.135Z,10.79
2023-04-14T13:51:12.863Z,10.74
2023-04-14T13:53:42.227Z,10.69
2023-04-14T13:56:12.452Z,10.50
2023-04-14T13:58:41.905Z,10.25
2023-04-14T14:01:15.506Z,10.07
2023-04-14T14:03:52.872Z,9.95
2023-04-14T14:06:22.519Z,9.89
2023-04-14T14:09:05.257Z,9.84
2023-04-14T14:13:01.200Z,9.85
2023-04-14T14:15:30.488Z,9.82
2023-04-14T14:18:10.522Z,9.85
2023-04-14T14:20:40.984Z,9.81
2023-04-14T14:23:12.185Z,9.73
2023-04-14T14:25:44.769Z,9.66
2023-04-14T14:28:15.006Z,9.58
2023-04-14T14:30:43.846Z,9.46
2023-04-14T14:33:15.881Z,9.43
2023-04-14T14:35:45.148Z,9.47
2023-04-14T14:38:13.380Z,9.55
2023-04-14T14:40:43.121Z,9.61
2023-04-14T14:43:11.785Z,9.59
2023-04-14T14:45:40.422Z,9.62
2023-04-14T14:48:11.796Z,9.65
2023-04-14T14:50:40.509Z,9.68
2023-04-14T14:53:09.889Z,9.72
2023-04-14T14:55:38.418Z,9.75
2023-04-14T14:58:08.596Z,9.78
2023-04-14T15:00:42.260Z,9.79
2023-04-14T15:03:12.429Z,9.79
2023-04-14T15:05:41.820Z,9.77
2023-04-14T15:08:10.838Z,9.73
2023-04-14T15:10:45.541Z,9.69
2023-04-14T15:13:15.761Z,9.66
2023-04-14T15:15:44.555Z,9.67
2023-04-14T15:18:14.171Z,9.66
2023-04-14T15:20:43.056Z,9.64
2023-04-14T15:23:12.277Z,9.61
2023-04-14T15:25:41.339Z,9.58
2023-04-14T15:28:12.480Z,9.54
2023-04-14T15:30:41.279Z,9.53
2023-04-14T15:33:11.653Z,9.53
2023-04-14T15:35:42.425Z,9.52
2023-04-14T15:38:11.440Z,9.54
2023-04-14T15:40:40.596Z,9.54
2023-04-14T15:43:09.652Z,9.58
2023-04-14T15:45:38.783Z,9.66
2023-04-14T15:48:07.457Z,9.72
2023-04-14T15:50:44.920Z,9.77
2023-04-14T15:53:14.530Z,9.78
2023-04-14T15:55:44.444Z,9.74
2023-04-14T15:58:12.948Z,9.72
2023-04-14T16:00:41.821Z,9.71
2023-04-14T16:03:12.176Z,9.72
2023-04-14T16:05:41.962Z,9.73
2023-04-14T16:08:11.040Z,9.68
2023-04-14T16:10:40.408Z,9.63
2023-04-14T16:13:19.565Z,9.59
2023-04-14T16:15:49.174Z,9.55
2023-04-14T16:18:18.090Z,9.51
2023-04-14T16:20:50.816Z,9.49
2023-04-14T16:26:08.680Z,9.47
2023-04-14T16:28:37.674Z,9.44
2023-04-14T16:31:08.708Z,9.36
2023-04-14T16:33:39.957Z,9.26
2023-04-14T16:36:08.562Z,9.21
2023-04-14T16:38:36.940Z,9.17
2023-04-14T16:41:05.968Z,9.13
2023-04-14T16:43:38.242Z,9.11
2023-04-14T16:46:11.021Z,9.11
2023-04-14T16:48:43.411Z,9.12
2023-04-14T16:51:16.073Z,9.11
2023-04-14T16:53:50.795Z,9.07
2023-04-14T16:56:20.653Z,9.01
2023-04-14T16:58:51.277Z,8.93
2023-04-14T17:04:18.257Z,8.89
2023-04-14T17:06:49.147Z,8.91
2023-04-14T17:09:18.187Z,8.91
2023-04-14T17:11:47.250Z,8.90
2023-04-14T17:14:19.496Z,8.93
2023-04-14T17:16:49.376Z,8.93
2023-04-14T17:19:18.419Z,8.89
2023-04-14T17:21:47.153Z,8.88
2023-04-14T17:24:15.776Z,8.91
2023-04-14T17:26:44.841Z,8.93
2023-04-14T17:29:14.589Z,8.90
2023-04-14T17:31:45.011Z,8.91
2023-04-14T17:34:22.953Z,8.86
2023-04-14T17:36:51.723Z,8.82
2023-04-14T17:39:27.224Z,8.79
2023-04-14T17:41:58.477Z,8.80
2023-04-14T17:44:38.148Z,8.83
2023-04-14T17:47:16.050Z,8.86
2023-04-14T17:52:38.784Z,8.88
2023-04-14T17:55:10.840Z,8.80
2023-04-14T17:58:00.985Z,8.74
2023-04-14T18:00:31.631Z,8.73
2023-04-14T18:03:04.608Z,8.71
2023-04-14T18:05:33.169Z,8.62
2023-04-14T18:08:01.890Z,8.59
2023-04-14T18:10:33.304Z,8.58
2023-04-14T18:13:02.181Z,8.59
2023-04-14T18:15:30.561Z,8.59
2023-04-14T18:18:09.233Z,8.57
2023-04-14T18:20:45.467Z,8.58
2023-04-14T18:23:18.348Z,8.54
2023-04-14T18:28:34.925Z,8.46
2023-04-14T18:31:05.048Z,8.44
2023-04-14T18:33:33.834Z,8.41
2023-04-14T18:36:09.127Z,8.39
2023-04-14T18:38:51.163Z,8.38
2023-04-14T18:41:20.832Z,8.38
2023-04-14T18:43:50.698Z,8.38
2023-04-14T18:46:22.535Z,8.34
2023-04-14T18:48:57.534Z,8.33
2023-04-14T18:51:27.763Z,8.31
2023-04-14T18:53:56.691Z,8.31
2023-04-14T18:56:26.754Z,8.34
2023-04-14T18:58:56.687Z,8.40
2023-04-14T19:01:25.699Z,8.41
2023-04-14T19:04:01.073Z,8.37
2023-04-14T19:06:31.350Z,8.34
2023-04-14T19:09:02.316Z,8.31
2023-04-14T19:11:36.020Z,8.29
2023-04-14T19:14:05.832Z,8.30
2023-04-14T19:16:39.094Z,8.31
2023-04-14T19:19:09.985Z,8.34
2023-04-14T19:21:49.203Z,8.29
2023-04-14T19:24:18.816Z,8.22
2023-04-14T19:26:49.420Z,8.15
2023-04-14T19:29:22.426Z,8.09
2023-04-14T19:31:51.113Z,8.06
2023-04-14T19:34:19.692Z,8.08
2023-04-14T19:36:49.750Z,8.08
2023-04-14T19:39:21.444Z,8.05
2023-04-14T19:41:57.480Z,8.04
2023-04-14T20:04:08.096Z,7.86
2023-04-14T20:06:45.594Z,7.88
2023-04-14T20:09:37.904Z,7.90
2023-04-14T20:12:08.509Z,7.87
2023-04-14T20:14:44.512Z,7.85
2023-04-14T20:17:15.352Z,7.83
2023-04-14T20:19:54.255Z,7.83
2023-04-14T20:22:23.701Z,7.79
2023-04-14T20:25:03.316Z,7.79
2023-04-14T20:27:33.919Z,7.77
2023-04-14T20:30:03.267Z,7.76
2023-04-14T20:32:44.534Z,7.74
2023-04-14T20:35:18.852Z,7.68
2023-04-14T20:37:47.962Z,7.68
2023-04-14T20:40:19.590Z,7.65
2023-04-14T20:42:54.318Z,7.63
2023-04-14T20:47:38.244Z,7.66
2023-04-14T20:50:10.488Z,7.65
2023-04-14T20:52:46.290Z,7.68
2023-04-14T20:58:58.931Z,7.64
2023-04-14T21:01:38.701Z,7.65
2023-04-14T21:04:13.863Z,7.61
2023-04-14T21:06:58.486Z,7.60
2023-04-14T21:09:47.489Z,7.58
2023-04-14T21:12:19.620Z,7.61
2023-04-14T21:15:30.620Z,7.61
2023-04-14T21:18:04.799Z,7.64
2023-04-14T21:20:36.615Z,7.64
2023-04-14T21:29:06.316Z,7.55
2023-04-14T21:31:37.819Z,7.50
2023-04-14T21:34:12.714Z,7.45
2023-04-14T21:36:44.037Z,7.42
2023-04-14T21:39:39.546Z,7.42
2023-04-14T21:45:01.240Z,7.51
2023-04-14T21:47:33.396Z,7.54
2023-04-14T21:50:05.004Z,7.58
2023-04-14T21:52:32.975Z,7.54
2023-04-14T21:55:06.309Z,7.48
2023-04-14T21:57:44.408Z,7.40
2023-04-14T22:00:18.699Z,7.36
2023-04-14T22:02:48.802Z,7.36
2023-04-14T22:05:16.960Z,7.38
2023-04-14T22:07:45.346Z,7.40
2023-04-14T22:10:15.134Z,7.38
2023-04-14T22:12:43.735Z,7.31
2023-04-14T22:15:12.102Z,7.27
2023-04-14T22:17:44.654Z,7.32
2023-04-14T22:20:12.532Z,7.34
2023-04-14T22:22:40.461Z,7.32
2023-04-14T22:25:13.843Z,7.30
2023-04-14T22:27:40.943Z,7.30
2023-04-14T22:30:09.665Z,7.29
2023-04-14T22:32:37.169Z,7.26
2023-04-14T22:35:05.506Z,7.28
2023-04-14T22:37:32.844Z,7.31
2023-04-14T22:40:02.956Z,7.30
2023-04-14T22:42:30.597Z,7.28
2023-04-14T22:44:58.282Z,7.27
2023-04-14T22:47:29.747Z,7.27
2023-04-14T22:49:56.665Z,7.24
2023-04-14T22:52:26.997Z,7.22
2023-04-14T22:54:56.048Z,7.19
2023-04-14T22:57:23.642Z,7.16
2023-04-14T22:59:52.622Z,7.14
2023-04-14T23:02:21.301Z,7.12
2023-04-14T23:04:48.783Z,7.13
2023-04-14T23:07:16.407Z,7.10
2023-04-14T23:09:58.070Z,7.03
2023-04-14T23:12:25.599Z,7.03
2023-04-14T23:14:53.968Z,7.08
2023-04-14T23:17:28.791Z,7.09
2023-04-14T23:19:57.035Z,7.06
2023-04-14T23:22:24.249Z,7.05
2023-04-14T23:24:52.376Z,7.09
2023-04-14T23:27:19.958Z,7.12
2023-04-14T23:29:47.428Z,7.12
2023-04-14T23:32:14.257Z,7.09
2023-04-14T23:34:42.893Z,7.03
2023-04-14T23:37:09.939Z,7.02
2023-04-14T23:39:36.744Z,7.02
2023-04-14T23:42:08.631Z,7.00
2023-04-14T23:44:36.907Z,7.00
2023-04-14T23:47:04.750Z,7.03
2023-04-14T23:49:35.941Z,7.05
2023-04-14T23:52:04.094Z,7.04
2023-04-14T23:54:31.182Z,7.01
2023-04-14T23:57:01.465Z,7.00
2023-04-14T23:59:28.562Z,6.98
